createdAt,value
2017-09-21T00:02:06.969Z,51.30
2017-09-21T00:04:35.232Z,51.30
2017-09-21T00:07:03.499Z,51.30
2017-09-21T00:09:31.899Z,51.30
2017-09-21T00:11:59.394Z,51.30
2017-09-21T00:14:26.886Z,51.30
2017-09-21T00:16:55.151Z,51.30
2017-09-21T00:19:23.557Z,51.30
2017-09-21T00:21:51.047Z,51.40
2017-09-21T00:24:18.547Z,51.30
2017-09-21T00:26:46.899Z,51.20
2017-09-21T00:29:14.419Z,51.20
2017-09-21T00:31:42.050Z,51.20
2017-09-21T00:34:09.543Z,51.30
2017-09-21T00:36:37.044Z,51.40
2017-09-21T00:39:05.300Z,51.30
2017-09-21T00:41:33.659Z,51.20
2017-09-21T00:44:01.147Z,51.30
2017-09-21T00:46:28.635Z,51.20
2017-09-21T00:48:56.679Z,51.20
2017-09-21T00:51:24.170Z,51.30
2017-09-21T00:53:51.682Z,51.30
2017-09-21T00:56:19.947Z,51.20
2017-09-21T00:58:48.231Z,51.20
2017-09-21T01:01:16.494Z,51.20
2017-09-21T01:03:44.892Z,51.20
2017-09-21T01:06:12.431Z,51.10
2017-09-21T01:08:40.712Z,51.30
2017-09-21T01:11:08.970Z,51.20
2017-09-21T01:13:37.366Z,51.30
2017-09-21T01:16:04.937Z,51.20
2017-09-21T01:18:32.562Z,51.30
2017-09-21T01:21:00.819Z,51.30
2017-09-21T01:23:28.334Z,51.30
2017-09-21T01:25:55.824Z,51.20
2017-09-21T01:28:24.371Z,51.30
2017-09-21T01:30:51.863Z,51.30
2017-09-21T01:33:20.274Z,51.20
2017-09-21T01:35:47.768Z,51.20
2017-09-21T01:38:15.283Z,51.20
2017-09-21T01:40:42.776Z,51.20
2017-09-21T01:43:10.287Z,51.30
2017-09-21T01:45:37.779Z,51.20
2017-09-21T01:48:05.295Z,51.20
2017-09-21T01:50:33.563Z,51.20
2017-09-21T01:53:01.839Z,51.30
2017-09-21T01:55:30.103Z,51.30
2017-09-21T01:57:58.387Z,51.10
2017-09-21T02:00:26.642Z,51.30
2017-09-21T02:02:54.931Z,51.30
2017-09-21T02:05:22.499Z,51.80
2017-09-21T02:07:50.154Z,51.10
2017-09-21T02:10:17.646Z,51.20
2017-09-21T02:12:45.271Z,51.10
2017-09-21T02:15:12.758Z,51.10
2017-09-21T02:17:40.250Z,51.10
2017-09-21T02:20:08.656Z,51.20
2017-09-21T02:22:36.154Z,51.30
2017-09-21T02:25:03.648Z,51.10
2017-09-21T02:27:31.991Z,51.30
2017-09-21T02:29:59.524Z,51.20
2017-09-21T02:32:27.150Z,51.20
2017-09-21T02:34:54.647Z,51.10
2017-09-21T02:37:22.144Z,51.20
2017-09-21T02:39:50.402Z,51.30
2017-09-21T02:42:18.668Z,51.20
2017-09-21T02:44:47.083Z,51.30
2017-09-21T02:47:14.650Z,51.10
2017-09-21T02:49:42.150Z,51.20
2017-09-21T02:52:09.672Z,51.30
2017-09-21T02:54:37.192Z,51.30
2017-09-21T02:57:05.454Z,51.80
2017-09-21T02:59:33.860Z,51.20
2017-09-21T03:02:01.467Z,51.20
2017-09-21T03:04:29.391Z,51.20
2017-09-21T03:06:57.039Z,51.20
2017-09-21T03:09:24.900Z,51.80
2017-09-21T03:11:52.502Z,51.20
2017-09-21T03:14:20.042Z,51.70
2017-09-21T03:16:47.535Z,51.20
2017-09-21T03:19:16.067Z,51.20
2017-09-21T03:21:43.564Z,51.10
2017-09-21T03:24:12.577Z,51.30
2017-09-21T03:26:40.843Z,51.20
2017-09-21T03:29:09.122Z,51.30
2017-09-21T03:31:37.379Z,51.30
2017-09-21T03:34:04.886Z,51.30
2017-09-21T03:36:32.433Z,51.20
2017-09-21T03:39:00.075Z,51.30
2017-09-21T03:41:27.571Z,51.30
2017-09-21T03:43:55.083Z,51.20
2017-09-21T03:46:22.658Z,51.20
2017-09-21T03:48:50.312Z,51.20
2017-09-21T03:51:17.804Z,51.20
2017-09-21T03:53:45.411Z,51.30
2017-09-21T03:56:13.087Z,51.30
2017-09-21T03:58:40.607Z,51.30
2017-09-21T04:01:08.864Z,51.30
2017-09-21T04:03:37.275Z,51.30
2017-09-21T04:06:04.951Z,51.20
2017-09-21T04:08:32.475Z,51.30
2017-09-21T04:11:00.741Z,51.30
2017-09-21T04:13:29.015Z,51.40
2017-09-21T04:15:57.273Z,51.40
2017-09-21T04:18:25.555Z,51.40
2017-09-21T04:20:53.824Z,51.40
2017-09-21T04:23:22.106Z,50.90
2017-09-21T04:25:50.366Z,51.30
2017-09-21T04:28:17.991Z,51.30
2017-09-21T04:30:45.632Z,51.40
2017-09-21T04:33:13.128Z,51.40
2017-09-21T04:35:40.623Z,51.40
2017-09-21T04:38:08.203Z,51.50
2017-09-21T04:40:35.695Z,51.40
2017-09-21T04:43:03.215Z,51.20
2017-09-21T04:45:30.704Z,51.30
2017-09-21T04:47:59.838Z,51.30
2017-09-21T04:50:27.495Z,51.80
2017-09-21T04:52:54.986Z,51.90
2017-09-21T04:55:22.612Z,51.30
2017-09-21T04:57:50.118Z,51.30
2017-09-21T05:00:17.618Z,51.20
2017-09-21T05:02:45.119Z,51.30
2017-09-21T05:05:12.681Z,51.20
2017-09-21T05:07:40.170Z,51.30
2017-09-21T05:10:08.447Z,51.40
2017-09-21T05:12:36.708Z,51.40
2017-09-21T05:15:04.988Z,51.30
2017-09-21T05:17:33.267Z,51.40
2017-09-21T05:20:01.550Z,51.40
2017-09-21T05:22:29.047Z,51.40
2017-09-21T05:24:56.767Z,51.40
2017-09-21T05:27:24.266Z,51.40
2017-09-21T05:29:51.775Z,51.40
2017-09-21T05:32:19.355Z,51.50
2017-09-21T05:34:46.877Z,51.30
2017-09-21T05:37:15.139Z,51.30
2017-09-21T05:39:43.419Z,51.30
2017-09-21T05:42:11.674Z,51.40
2017-09-21T05:44:40.084Z,51.40
2017-09-21T05:47:07.583Z,51.40
2017-09-21T05:49:35.190Z,51.30
2017-09-21T05:52:02.799Z,51.30
2017-09-21T05:54:30.506Z,51.30
2017-09-21T05:56:58.167Z,51.40
2017-09-21T05:59:25.681Z,52.00
2017-09-21T06:01:53.175Z,51.40
2017-09-21T06:04:20.690Z,51.30
2017-09-21T06:06:48.199Z,51.30
2017-09-21T06:09:15.728Z,51.40
2017-09-21T06:11:43.996Z,51.50
2017-09-21T06:14:12.390Z,51.60
2017-09-21T06:16:40.055Z,51.40
2017-09-21T06:19:07.706Z,51.30
2017-09-21T06:21:35.366Z,51.40
2017-09-21T06:24:03.031Z,51.40
2017-09-21T06:26:30.630Z,51.40
2017-09-21T06:28:58.339Z,51.40
2017-09-21T06:31:26.003Z,51.40
2017-09-21T06:33:53.514Z,51.50
2017-09-21T06:36:21.783Z,51.40
2017-09-21T06:38:49.317Z,51.40
2017-09-21T06:41:16.864Z,51.40
2017-09-21T06:43:44.498Z,51.50
2017-09-21T06:46:12.000Z,51.50
2017-09-21T06:48:39.491Z,51.50
2017-09-21T06:51:07.746Z,52.10
2017-09-21T06:53:35.234Z,51.60
2017-09-21T06:56:02.718Z,51.50
2017-09-21T06:58:30.207Z,51.50
2017-09-21T07:00:57.698Z,51.60
2017-09-21T07:03:25.271Z,51.60
2017-09-21T07:05:52.767Z,51.50
2017-09-21T07:08:20.259Z,51.60
2017-09-21T07:10:47.860Z,52.10
2017-09-21T07:13:15.352Z,51.70
2017-09-21T07:15:43.759Z,51.80
2017-09-21T07:18:11.254Z,51.70
2017-09-21T07:20:38.772Z,51.70
2017-09-21T07:23:06.267Z,51.60
2017-09-21T07:25:33.780Z,51.60
2017-09-21T07:28:01.432Z,51.60
2017-09-21T07:30:29.190Z,51.60
2017-09-21T07:32:56.690Z,51.60
2017-09-21T07:35:24.408Z,51.50
2017-09-21T07:37:52.027Z,51.50
2017-09-21T07:40:19.563Z,51.60
2017-09-21T07:42:47.054Z,51.50
2017-09-21T07:45:15.326Z,51.60
2017-09-21T07:47:43.718Z,51.60
2017-09-21T07:50:11.238Z,51.60
2017-09-21T07:52:38.740Z,51.60
2017-09-21T07:55:06.491Z,51.60
2017-09-21T07:57:33.997Z,51.50
2017-09-21T08:00:01.510Z,51.60
2017-09-21T08:02:29.266Z,51.60
2017-09-21T08:04:56.779Z,51.60
2017-09-21T08:07:24.379Z,51.60
2017-09-21T08:09:51.891Z,51.60
2017-09-21T08:12:19.390Z,51.70
2017-09-21T08:14:46.982Z,51.60
2017-09-21T08:17:14.484Z,51.70
2017-09-21T08:19:42.875Z,51.60
2017-09-21T08:22:10.367Z,51.60
2017-09-21T08:24:37.884Z,51.50
2017-09-21T08:27:05.382Z,51.60
2017-09-21T08:29:33.074Z,51.60
2017-09-21T08:32:00.567Z,51.60
2017-09-21T08:34:28.210Z,51.60
2017-09-21T08:36:55.871Z,51.60
2017-09-21T08:39:23.370Z,51.60
2017-09-21T08:41:50.975Z,51.60
2017-09-21T08:44:18.467Z,51.70
2017-09-21T08:46:45.959Z,51.70
2017-09-21T08:49:14.218Z,51.70
2017-09-21T08:51:41.716Z,51.60
2017-09-21T08:54:09.280Z,51.70
2017-09-21T08:56:36.779Z,51.70
2017-09-21T08:59:04.382Z,51.80
2017-09-21T09:01:32.042Z,51.80
2017-09-21T09:03:59.708Z,51.70
2017-09-21T09:06:27.379Z,51.80
2017-09-21T09:08:54.882Z,51.80
2017-09-21T09:11:23.297Z,51.70
2017-09-21T09:13:50.794Z,51.70
2017-09-21T09:16:18.302Z,51.70
2017-09-21T09:18:45.878Z,51.80
2017-09-21T09:21:13.395Z,51.70
2017-09-21T09:23:41.655Z,51.70
2017-09-21T09:26:10.081Z,51.80
2017-09-21T09:28:37.571Z,51.70
2017-09-21T09:31:05.086Z,51.70
2017-09-21T09:33:32.655Z,51.70
2017-09-21T09:36:00.166Z,51.70
2017-09-21T09:38:28.422Z,51.80
2017-09-21T09:40:55.936Z,51.70
2017-09-21T09:43:23.493Z,51.70
2017-09-21T09:45:51.002Z,51.70
2017-09-21T09:48:19.403Z,51.70
2017-09-21T09:50:47.063Z,51.70
2017-09-21T09:53:14.735Z,51.80
2017-09-21T09:55:42.246Z,51.80
2017-09-21T09:58:10.510Z,51.80
2017-09-21T10:00:38.790Z,52.10
2017-09-21T10:03:07.047Z,51.90
2017-09-21T10:05:34.552Z,52.30
2017-09-21T10:08:02.120Z,51.80
2017-09-21T10:10:29.635Z,51.80
2017-09-21T10:12:57.890Z,51.80
2017-09-21T10:15:25.412Z,51.80
2017-09-21T10:17:53.023Z,51.80
2017-09-21T10:20:21.278Z,51.80
2017-09-21T10:22:49.541Z,51.80
2017-09-21T10:25:17.803Z,52.30
2017-09-21T10:27:45.307Z,51.80
2017-09-21T10:30:12.814Z,51.80
2017-09-21T10:32:40.343Z,51.80
2017-09-21T10:35:07.844Z,51.80
2017-09-21T10:37:35.342Z,51.80
2017-09-21T10:40:03.095Z,51.90
2017-09-21T10:42:30.587Z,51.90
2017-09-21T10:44:58.211Z,51.90
2017-09-21T10:47:25.862Z,51.90
2017-09-21T10:49:53.350Z,51.90
2017-09-21T10:52:20.979Z,51.80
2017-09-21T10:54:48.639Z,51.90
2017-09-21T10:57:16.296Z,51.90
2017-09-21T10:59:43.790Z,51.90
2017-09-21T11:02:11.415Z,52.00
2017-09-21T11:04:39.892Z,51.90
2017-09-21T11:07:07.503Z,51.90
2017-09-21T11:09:36.639Z,51.90
2017-09-21T11:12:04.323Z,51.90
2017-09-21T11:14:31.818Z,51.90
2017-09-21T11:17:00.105Z,51.40
2017-09-21T11:19:28.362Z,51.90
2017-09-21T11:21:56.647Z,51.90
2017-09-21T11:24:24.907Z,51.90
2017-09-21T11:26:53.220Z,52.50
2017-09-21T11:29:20.779Z,51.90
2017-09-21T11:31:48.437Z,52.00
2017-09-21T11:34:15.939Z,52.00
2017-09-21T11:36:43.460Z,52.00
2017-09-21T11:39:10.954Z,52.00
2017-09-21T11:41:38.469Z,52.00
2017-09-21T11:44:05.963Z,51.90
2017-09-21T11:46:33.479Z,51.90
2017-09-21T11:49:01.019Z,51.90
2017-09-21T11:51:28.526Z,51.90
2017-09-21T11:53:56.015Z,51.90
2017-09-21T11:56:24.316Z,52.00
2017-09-21T11:58:51.815Z,52.00
2017-09-21T12:01:19.334Z,52.00
2017-09-21T12:03:46.842Z,52.10
2017-09-21T12:06:15.121Z,52.10
2017-09-21T12:08:43.379Z,52.10
2017-09-21T12:11:11.674Z,52.70
2017-09-21T12:13:39.934Z,52.00
2017-09-21T12:16:08.218Z,52.00
2017-09-21T12:18:36.499Z,52.00
2017-09-21T12:21:04.063Z,52.00
2017-09-21T12:23:31.574Z,52.00
2017-09-21T12:25:59.603Z,52.00
2017-09-21T12:28:27.244Z,52.10
2017-09-21T12:30:54.847Z,52.00
2017-09-21T12:33:22.343Z,52.10
2017-09-21T12:35:49.919Z,52.00
2017-09-21T12:38:17.425Z,52.10
2017-09-21T12:40:44.939Z,52.10
2017-09-21T12:43:12.437Z,52.10
2017-09-21T12:45:39.940Z,52.10
2017-09-21T12:48:07.714Z,52.10
2017-09-21T12:50:35.208Z,52.20
2017-09-21T12:53:03.475Z,52.10
2017-09-21T12:55:30.985Z,52.10
2017-09-21T12:57:58.725Z,52.10
2017-09-21T13:00:26.224Z,52.10
2017-09-21T13:02:53.804Z,52.20
2017-09-21T13:05:22.172Z,52.20
2017-09-21T13:07:49.654Z,52.20
2017-09-21T13:10:17.918Z,52.20
2017-09-21T13:12:45.539Z,52.20
2017-09-21T13:15:13.032Z,52.10
2017-09-21T13:17:41.312Z,52.20
2017-09-21T13:20:09.707Z,52.10
2017-09-21T13:22:37.219Z,52.00
2017-09-21T13:25:04.719Z,52.00
2017-09-21T13:27:32.312Z,52.10
2017-09-21T13:29:59.807Z,52.10
2017-09-21T13:32:28.094Z,52.10
2017-09-21T13:34:56.365Z,52.10
2017-09-21T13:37:24.647Z,52.10
2017-09-21T13:39:52.224Z,52.10
2017-09-21T13:42:19.869Z,52.10
2017-09-21T13:44:47.523Z,52.00
2017-09-21T13:47:15.194Z,52.00
2017-09-21T13:49:42.687Z,52.00
2017-09-21T13:52:10.202Z,52.10
2017-09-21T13:54:37.702Z,52.10
2017-09-21T13:57:05.243Z,52.00
2017-09-21T13:59:32.734Z,52.00
2017-09-21T14:02:01.019Z,52.00
2017-09-21T14:04:29.282Z,52.00
2017-09-21T14:06:57.684Z,52.10
2017-09-21T14:09:25.187Z,52.00
2017-09-21T14:11:52.700Z,52.00
2017-09-21T14:14:20.192Z,52.10
2017-09-21T14:16:47.712Z,52.00
2017-09-21T14:19:15.202Z,52.00
2017-09-21T14:21:42.811Z,52.00
2017-09-21T14:24:10.312Z,52.00
2017-09-21T14:26:37.812Z,52.00
2017-09-21T14:29:05.298Z,52.00
2017-09-21T14:31:32.791Z,52.00
2017-09-21T14:34:01.799Z,52.00
2017-09-21T14:36:30.194Z,51.90
2017-09-21T14:38:57.686Z,51.90
2017-09-21T14:41:25.185Z,52.00
2017-09-21T14:43:53.471Z,52.20
2017-09-21T14:46:20.970Z,52.10
2017-09-21T14:48:48.503Z,52.00
2017-09-21T14:51:15.998Z,51.90
2017-09-21T14:53:43.520Z,52.00
2017-09-21T14:56:11.011Z,52.00
2017-09-21T14:58:40.036Z,52.00
2017-09-21T15:01:07.630Z,52.00
2017-09-21T15:03:35.158Z,52.00
2017-09-21T15:06:02.726Z,52.00
2017-09-21T15:08:30.372Z,52.00
2017-09-21T15:10:57.910Z,51.90
2017-09-21T15:13:26.191Z,52.00
2017-09-21T15:15:53.775Z,52.00
2017-09-21T15:18:21.290Z,52.00
2017-09-21T15:20:49.570Z,51.90
2017-09-21T15:23:17.956Z,52.00
2017-09-21T15:25:45.447Z,52.00
2017-09-21T15:28:12.967Z,52.00
2017-09-21T15:30:40.458Z,51.90
2017-09-21T15:33:07.958Z,52.00
2017-09-21T15:35:35.451Z,51.90
2017-09-21T15:38:03.095Z,52.00
2017-09-21T15:40:30.747Z,52.00
2017-09-21T15:42:58.234Z,51.90
2017-09-21T15:45:25.862Z,51.90
2017-09-21T15:47:53.350Z,52.00
2017-09-21T15:50:20.854Z,52.00
2017-09-21T15:52:49.244Z,52.00
2017-09-21T15:55:16.739Z,52.00
2017-09-21T15:57:44.235Z,52.00
2017-09-21T16:00:12.515Z,52.00
2017-09-21T16:02:40.771Z,52.00
2017-09-21T16:05:09.129Z,51.90
2017-09-21T16:07:36.639Z,51.90
2017-09-21T16:10:04.156Z,51.90
2017-09-21T16:12:32.563Z,52.00
2017-09-21T16:15:00.267Z,52.50
2017-09-21T16:17:27.758Z,52.00
2017-09-21T16:19:56.035Z,52.00
2017-09-21T16:22:24.307Z,51.90
2017-09-21T16:24:52.586Z,52.00
2017-09-21T16:27:20.851Z,51.90
2017-09-21T16:29:49.247Z,51.90
2017-09-21T16:32:16.739Z,51.90
2017-09-21T16:34:44.235Z,52.00
2017-09-21T16:37:12.503Z,52.00
2017-09-21T16:39:40.779Z,51.90
2017-09-21T16:42:09.193Z,52.00
2017-09-21T16:44:36.696Z,51.80
2017-09-21T16:47:04.211Z,51.90
2017-09-21T16:49:31.706Z,51.90
2017-09-21T16:51:59.223Z,52.00
2017-09-21T16:54:26.714Z,51.80
2017-09-21T16:56:54.238Z,51.90
2017-09-21T16:59:21.735Z,51.90
2017-09-21T17:01:49.259Z,51.90
2017-09-21T17:04:16.755Z,51.90
2017-09-21T17:06:45.039Z,52.00
2017-09-21T17:09:12.534Z,52.00
2017-09-21T17:11:40.051Z,51.90
2017-09-21T17:14:07.715Z,51.90
2017-09-21T17:16:35.267Z,52.00
2017-09-21T17:19:03.030Z,52.00
2017-09-21T17:21:30.523Z,52.00
2017-09-21T17:23:58.019Z,51.90
2017-09-21T17:26:26.291Z,51.80
2017-09-21T17:28:54.698Z,52.00
2017-09-21T17:31:22.366Z,51.90
2017-09-21T17:33:50.021Z,51.90
2017-09-21T17:36:17.512Z,52.00
2017-09-21T17:38:45.011Z,52.00
2017-09-21T17:41:12.498Z,52.00
2017-09-21T17:43:39.991Z,51.80
2017-09-21T17:46:07.496Z,51.90
2017-09-21T17:48:34.991Z,51.90
2017-09-21T17:51:02.486Z,52.00
2017-09-21T17:53:30.066Z,52.00
2017-09-21T17:55:57.568Z,52.00
2017-09-21T17:58:27.002Z,52.00
2017-09-21T18:00:54.686Z,51.90
2017-09-21T18:03:22.175Z,52.00
2017-09-21T18:05:50.436Z,51.90
2017-09-21T18:08:17.957Z,52.00
2017-09-21T18:10:45.525Z,52.00
2017-09-21T18:13:13.044Z,52.10
2017-09-21T18:15:41.298Z,52.00
2017-09-21T18:18:09.578Z,52.70
2017-09-21T18:20:37.834Z,52.00
2017-09-21T18:23:05.360Z,52.00
2017-09-21T18:25:32.898Z,52.00
2017-09-21T18:28:00.396Z,52.00
2017-09-21T18:30:27.891Z,51.90
2017-09-21T18:32:55.471Z,52.00
2017-09-21T18:35:22.971Z,51.90
2017-09-21T18:37:51.226Z,51.50
2017-09-21T18:40:18.722Z,51.90
2017-09-21T18:42:46.311Z,52.00
2017-09-21T18:45:13.822Z,52.00
2017-09-21T18:47:42.086Z,52.00
2017-09-21T18:50:10.385Z,52.00
2017-09-21T18:52:38.146Z,51.90
2017-09-21T18:55:05.812Z,51.90
2017-09-21T18:57:33.303Z,52.00
2017-09-21T19:00:00.799Z,51.90
2017-09-21T19:02:29.206Z,51.90
2017-09-21T19:04:56.708Z,51.80
2017-09-21T19:07:24.204Z,51.90
2017-09-21T19:09:51.779Z,51.90
2017-09-21T19:12:19.448Z,51.90
2017-09-21T19:14:46.950Z,51.90
2017-09-21T19:17:15.231Z,51.90
2017-09-21T19:19:43.499Z,51.90
2017-09-21T19:22:11.759Z,51.90
2017-09-21T19:24:40.168Z,51.90
2017-09-21T19:27:07.684Z,51.90
2017-09-21T19:29:35.242Z,51.90
2017-09-21T19:32:02.806Z,51.90
2017-09-21T19:34:31.212Z,51.80
2017-09-21T19:36:58.710Z,51.70
2017-09-21T19:39:26.263Z,51.70
2017-09-21T19:41:53.806Z,52.30
2017-09-21T19:44:21.438Z,51.90
2017-09-21T19:46:49.094Z,51.90
2017-09-21T19:49:16.653Z,51.80
2017-09-21T19:51:44.278Z,51.90
2017-09-21T19:54:12.743Z,51.90
2017-09-21T19:56:40.234Z,51.90
2017-09-21T19:59:07.782Z,51.80
2017-09-21T20:01:35.471Z,51.90
2017-09-21T20:04:02.968Z,51.80
2017-09-21T20:06:30.460Z,51.90
2017-09-21T20:08:58.039Z,51.90
2017-09-21T20:11:25.585Z,51.90
2017-09-21T20:13:53.151Z,51.90
2017-09-21T20:16:20.643Z,51.90
2017-09-21T20:18:48.136Z,51.90
2017-09-21T20:21:15.631Z,51.80
2017-09-21T20:23:43.186Z,51.90
2017-09-21T20:26:10.683Z,51.90
2017-09-21T20:28:38.191Z,51.70
2017-09-21T20:31:05.686Z,51.90
2017-09-21T20:33:33.380Z,51.80
2017-09-21T20:36:01.035Z,51.60
2017-09-21T20:38:28.546Z,51.60
2017-09-21T20:40:56.234Z,51.70
2017-09-21T20:43:24.514Z,51.70
2017-09-21T20:45:52.779Z,51.70
2017-09-21T20:48:21.171Z,51.70
2017-09-21T20:50:48.666Z,51.70
2017-09-21T20:53:16.193Z,51.80
2017-09-21T20:55:43.763Z,51.80
2017-09-21T20:58:11.413Z,51.80
2017-09-21T21:00:39.071Z,51.80
2017-09-21T21:03:06.587Z,51.80
2017-09-21T21:05:34.854Z,51.80
2017-09-21T21:08:03.131Z,51.80
2017-09-21T21:10:31.395Z,51.80
2017-09-21T21:12:58.986Z,51.80
2017-09-21T21:15:26.483Z,51.80
2017-09-21T21:17:53.999Z,51.80
2017-09-21T21:20:21.500Z,51.70
2017-09-21T21:22:49.211Z,51.80
2017-09-21T21:25:16.723Z,51.70
2017-09-21T21:27:44.248Z,51.80
2017-09-21T21:30:11.741Z,51.70
2017-09-21T21:32:39.246Z,51.80
2017-09-21T21:35:06.895Z,51.70
2017-09-21T21:37:34.391Z,51.70
2017-09-21T21:40:02.003Z,51.70
2017-09-21T21:42:29.495Z,51.80
2017-09-21T21:44:57.163Z,51.70
2017-09-21T21:47:24.655Z,51.70
2017-09-21T21:49:52.936Z,51.60
2017-09-21T21:52:20.431Z,51.70
2017-09-21T21:54:47.931Z,51.60
2017-09-21T21:57:15.439Z,51.70
2017-09-21T21:59:42.943Z,51.70
2017-09-21T22:02:11.335Z,51.80
2017-09-21T22:04:38.847Z,51.70
2017-09-21T22:07:06.451Z,51.70
2017-09-21T22:09:34.092Z,51.80
2017-09-21T22:12:01.594Z,51.70
2017-09-21T22:14:29.224Z,51.70
2017-09-21T22:16:56.740Z,51.60
2017-09-21T22:19:24.235Z,51.60
2017-09-21T22:21:51.803Z,51.50
2017-09-21T22:24:19.300Z,51.60
2017-09-21T22:26:46.894Z,51.60
2017-09-21T22:29:14.399Z,51.60
2017-09-21T22:31:41.891Z,51.40
2017-09-21T22:34:10.165Z,51.50
2017-09-21T22:36:38.558Z,51.60
2017-09-21T22:39:06.071Z,51.50
2017-09-21T22:41:33.562Z,52.00
2017-09-21T22:44:01.326Z,51.40
2017-09-21T22:46:28.818Z,51.50
2017-09-21T22:48:56.434Z,51.50
2017-09-21T22:51:24.104Z,51.50
2017-09-21T22:53:51.791Z,51.50
2017-09-21T22:56:19.283Z,51.50
2017-09-21T22:58:47.563Z,51.50
2017-09-21T23:01:15.819Z,51.40
2017-09-21T23:03:43.328Z,51.40
2017-09-21T23:06:10.866Z,51.40
2017-09-21T23:08:38.376Z,51.40
2017-09-21T23:11:05.978Z,51.30
2017-09-21T23:13:33.487Z,51.40
2017-09-21T23:16:01.091Z,51.30
2017-09-21T23:18:28.751Z,51.40
2017-09-21T23:20:56.411Z,51.40
2017-09-21T23:23:24.071Z,51.40
2017-09-21T23:25:51.728Z,51.40
2017-09-21T23:28:19.239Z,51.30
2017-09-21T23:30:46.732Z,51.30
2017-09-21T23:33:14.330Z,51.30
2017-09-21T23:35:41.950Z,51.20
2017-09-21T23:38:09.467Z,51.20
2017-09-21T23:40:36.963Z,51.30
2017-09-21T23:43:04.514Z,51.30
2017-09-21T23:45:32.002Z,51.30
2017-09-21T23:47:59.632Z,51.30
2017-09-21T23:50:27.293Z,51.30
2017-09-21T23:52:54.787Z,51.20
2017-09-21T23:55:22.279Z,51.30
2017-09-21T23:57:50.534Z,51.30
